sensor_id;sensor_type;location;lat;lon;timestamp;pressure;altitude;pressure_sealevel;temperature;humidity
69316;BME280;56445;43.552;5.034;2022-09-17T10:46:53;101130.00;;;45.80;16.72
69316;BME280;56445;43.552;5.034;2022-09-17T10:53:25;101149.16;;;46.12;16.94
69316;BME280;56445;43.552;5.034;2022-09-17T14:54:13;101147.41;;;46.77;14.94
69316;BME280;56445;43.552;5.034;2022-09-17T15:00:36;101141.41;;;47.00;14.61
69316;BME280;56445;43.552;5.034;2022-09-17T15:03:22;101111.59;;;47.14;14.64
69316;BME280;56445;43.552;5.034;2022-09-17T15:06:00;101124.44;;;47.35;14.70
69316;BME280;56445;43.552;5.034;2022-09-17T15:08:32;101133.03;;;47.35;14.73
69316;BME280;56445;43.552;5.034;2022-09-17T15:11:10;101148.44;;;47.38;14.69
69316;BME280;56445;43.552;5.034;2022-09-17T15:13:56;101121.41;;;47.00;14.62
69316;BME280;56445;43.552;5.034;2022-09-17T15:16:46;101145.63;;;46.83;14.81
69316;BME280;56445;43.552;5.034;2022-09-17T15:19:22;101119.81;;;46.28;14.61
69316;BME280;56445;43.552;5.034;2022-09-17T15:22:21;101146.41;;;45.92;14.84
69316;BME280;56445;43.552;5.034;2022-09-17T15:31:34;101124.22;;;43.83;15.01
69316;BME280;56445;43.552;5.034;2022-09-17T15:34:04;101127.66;;;43.44;14.84
69316;BME280;56445;43.552;5.034;2022-09-17T15:36:32;101163.16;;;43.25;14.73
69316;BME280;56445;43.552;5.034;2022-09-17T15:39:30;101161.66;;;42.82;15.17
69316;BME280;56445;43.552;5.034;2022-09-17T15:42:33;101124.66;;;42.17;15.14
69316;BME280;56445;43.552;5.034;2022-09-17T15:45:27;101130.09;;;41.93;14.89
69316;BME280;56445;43.552;5.034;2022-09-17T15:47:58;101158.97;;;41.77;15.16
69316;BME280;56445;43.552;5.034;2022-09-17T15:50:31;101132.03;;;41.44;15.15
69316;BME280;56445;43.552;5.034;2022-09-17T17:00:20;101198.34;;;38.58;15.56
69316;BME280;56445;43.552;5.034;2022-09-17T17:35:41;101164.47;;;37.65;15.81
69316;BME280;56445;43.552;5.034;2022-09-17T17:38:08;101180.25;;;37.73;15.28
69316;BME280;56445;43.552;5.034;2022-09-17T17:40:36;101183.00;;;37.69;15.63
69316;BME280;56445;43.552;5.034;2022-09-17T17:43:03;101187.38;;;37.63;15.61
69316;BME280;56445;43.552;5.034;2022-09-17T17:45:30;101163.50;;;37.54;15.71
69316;BME280;56445;43.552;5.034;2022-09-17T17:47:57;101179.19;;;37.51;15.47
69316;BME280;56445;43.552;5.034;2022-09-17T17:50:24;101182.31;;;37.46;15.62
69316;BME280;56445;43.552;5.034;2022-09-17T17:52:55;101178.59;;;37.38;15.50
69316;BME280;56445;43.552;5.034;2022-09-17T17:55:22;101185.03;;;37.35;15.74
69316;BME280;56445;43.552;5.034;2022-09-17T17:57:56;101183.38;;;37.30;15.23
69316;BME280;56445;43.552;5.034;2022-09-17T18:00:27;101189.66;;;37.20;15.63
69316;BME280;56445;43.552;5.034;2022-09-17T18:02:54;101181.13;;;37.13;15.29
69316;BME280;56445;43.552;5.034;2022-09-17T18:05:22;101210.19;;;37.24;15.87
69316;BME280;56445;43.552;5.034;2022-09-17T18:07:49;101189.88;;;37.08;15.36
69316;BME280;56445;43.552;5.034;2022-09-17T18:10:17;101201.63;;;37.14;15.10
69316;BME280;56445;43.552;5.034;2022-09-17T18:12:45;101209.69;;;37.15;15.72
69316;BME280;56445;43.552;5.034;2022-09-17T18:15:25;101180.47;;;36.97;15.34
69316;BME280;56445;43.552;5.034;2022-09-17T18:17:53;101198.16;;;36.97;15.44
69316;BME280;56445;43.552;5.034;2022-09-17T18:20:20;101211.88;;;37.02;15.49
69316;BME280;56445;43.552;5.034;2022-09-17T18:22:49;101182.75;;;36.87;15.85
69316;BME280;56445;43.552;5.034;2022-09-17T18:25:16;101227.63;;;37.07;15.69
69316;BME280;56445;43.552;5.034;2022-09-17T18:27:43;101204.09;;;36.92;15.53
69316;BME280;56445;43.552;5.034;2022-09-17T18:30:12;101218.66;;;36.98;15.38
69316;BME280;56445;43.552;5.034;2022-09-17T18:32:40;101220.56;;;36.90;15.43
69316;BME280;56445;43.552;5.034;2022-09-17T18:35:07;101224.59;;;36.92;15.58
69316;BME280;56445;43.552;5.034;2022-09-17T18:37:34;101214.00;;;36.82;15.70
69316;BME280;56445;43.552;5.034;2022-09-17T18:40:02;101206.78;;;36.81;15.45
69316;BME280;56445;43.552;5.034;2022-09-17T18:42:30;101190.44;;;36.64;15.66
69316;BME280;56445;43.552;5.034;2022-09-17T18:44:57;101200.28;;;36.77;15.61
69316;BME280;56445;43.552;5.034;2022-09-17T18:47:24;101203.97;;;36.81;15.56
69316;BME280;56445;43.552;5.034;2022-09-17T18:49:51;101215.97;;;36.78;15.46
69316;BME280;56445;43.552;5.034;2022-09-17T18:52:18;101202.84;;;36.63;15.69
69316;BME280;56445;43.552;5.034;2022-09-17T18:54:46;101198.00;;;36.60;15.77
69316;BME280;56445;43.552;5.034;2022-09-17T18:57:20;101196.78;;;36.61;15.49
69316;BME280;56445;43.552;5.034;2022-09-17T18:59:47;101217.53;;;36.52;15.80
69316;BME280;56445;43.552;5.034;2022-09-17T19:02:17;101214.00;;;36.56;15.51
69316;BME280;56445;43.552;5.034;2022-09-17T19:04:45;101211.06;;;36.48;15.52
69316;BME280;56445;43.552;5.034;2022-09-17T19:07:12;101217.84;;;36.47;15.44
69316;BME280;56445;43.552;5.034;2022-09-17T19:09:39;101207.25;;;36.37;15.76
69316;BME280;56445;43.552;5.034;2022-09-17T19:12:06;101205.94;;;36.31;15.83
69316;BME280;56445;43.552;5.034;2022-09-17T19:14:34;101206.75;;;36.31;15.48
69316;BME280;56445;43.552;5.034;2022-09-17T19:17:01;101216.38;;;36.30;15.29
69316;BME280;56445;43.552;5.034;2022-09-17T19:19:30;101204.28;;;36.26;15.54
69316;BME280;56445;43.552;5.034;2022-09-17T19:21:57;101207.44;;;36.25;15.82
69316;BME280;56445;43.552;5.034;2022-09-17T19:24:24;101207.44;;;36.25;15.68
69316;BME280;56445;43.552;5.034;2022-09-17T19:26:51;101197.56;;;36.11;15.60
69316;BME280;56445;43.552;5.034;2022-09-17T19:29:20;101198.38;;;36.12;15.80
69316;BME280;56445;43.552;5.034;2022-09-17T19:31:47;101203.06;;;36.04;15.78
69316;BME280;56445;43.552;5.034;2022-09-17T19:34:14;101202.56;;;35.99;15.67
69316;BME280;56445;43.552;5.034;2022-09-17T19:36:43;101221.06;;;36.03;15.51
69316;BME280;56445;43.552;5.034;2022-09-17T19:39:10;101223.44;;;36.01;15.70
69316;BME280;56445;43.552;5.034;2022-09-17T19:41:37;101238.00;;;36.07;15.68
69316;BME280;56445;43.552;5.034;2022-09-17T19:44:04;101253.91;;;35.99;15.37
69316;BME280;56445;43.552;5.034;2022-09-17T19:46:32;101242.97;;;35.94;15.52
69316;BME280;56445;43.552;5.034;2022-09-17T19:48:59;101246.16;;;35.92;15.87
69316;BME280;56445;43.552;5.034;2022-09-17T19:51:27;101238.84;;;35.88;15.62
69316;BME280;56445;43.552;5.034;2022-09-17T19:53:58;101243.22;;;35.85;15.61
69316;BME280;56445;43.552;5.034;2022-09-17T19:56:26;101249.19;;;35.84;15.67
69316;BME280;56445;43.552;5.034;2022-09-17T19:58:54;101273.41;;;35.92;15.64
69316;BME280;56445;43.552;5.034;2022-09-17T20:01:25;101223.09;;;35.64;15.98
69316;BME280;56445;43.552;5.034;2022-09-17T20:04:01;101255.56;;;35.81;15.86
69316;BME280;56445;43.552;5.034;2022-09-17T20:06:33;101251.56;;;35.82;15.92
69316;BME280;56445;43.552;5.034;2022-09-17T20:09:02;101261.19;;;35.81;15.99
69316;BME280;56445;43.552;5.034;2022-09-17T20:11:29;101263.53;;;35.79;15.87
69316;BME280;56445;43.552;5.034;2022-09-17T20:14:00;101243.13;;;35.62;15.67
69316;BME280;56445;43.552;5.034;2022-09-17T20:16:29;101252.88;;;35.68;15.58
69316;BME280;56445;43.552;5.034;2022-09-17T20:18:56;101256.13;;;35.70;16.12
69316;BME280;56445;43.552;5.034;2022-09-17T20:21:27;101277.19;;;35.80;15.89
69316;BME280;56445;43.552;5.034;2022-09-17T20:23:56;101272.00;;;35.82;15.92
69316;BME280;56445;43.552;5.034;2022-09-17T20:26:25;101267.53;;;35.78;15.91
69316;BME280;56445;43.552;5.034;2022-09-17T20:28:52;101259.78;;;35.71;16.00
69316;BME280;56445;43.552;5.034;2022-09-17T20:31:25;101280.06;;;35.84;16.05
69316;BME280;56445;43.552;5.034;2022-09-17T20:33:54;101259.34;;;35.69;15.84
69316;BME280;56445;43.552;5.034;2022-09-17T20:36:27;101274.00;;;35.82;15.82
69316;BME280;56445;43.552;5.034;2022-09-17T20:38:57;101279.50;;;35.74;15.93
69316;BME280;56445;43.552;5.034;2022-09-17T20:41:50;101281.13;;;35.76;15.84
69316;BME280;56445;43.552;5.034;2022-09-17T20:44:26;101288.22;;;35.69;16.20
69316;BME280;56445;43.552;5.034;2022-09-17T20:46:53;101273.09;;;35.58;16.22
69316;BME280;56445;43.552;5.034;2022-09-17T20:49:24;101281.06;;;35.56;15.90
69316;BME280;56445;43.552;5.034;2022-09-17T20:51:55;101271.31;;;35.50;15.87
69316;BME280;56445;43.552;5.034;2022-09-17T20:54:25;101272.44;;;35.45;15.76
69316;BME280;56445;43.552;5.034;2022-09-17T20:56:52;101278.13;;;35.49;15.76
69316;BME280;56445;43.552;5.034;2022-09-17T20:59:22;101284.81;;;35.44;15.93
69316;BME280;56445;43.552;5.034;2022-09-17T21:01:56;101277.16;;;35.41;15.58
69316;BME280;56445;43.552;5.034;2022-09-17T21:04:23;101284.19;;;35.51;15.94
69316;BME280;56445;43.552;5.034;2022-09-17T21:06:52;101277.16;;;35.41;15.74
69316;BME280;56445;43.552;5.034;2022-09-17T21:09:20;101281.22;;;35.44;15.91
69316;BME280;56445;43.552;5.034;2022-09-17T21:11:47;101292.53;;;35.47;15.74
69316;BME280;56445;43.552;5.034;2022-09-17T21:14:15;101275.84;;;35.35;15.97
69316;BME280;56445;43.552;5.034;2022-09-17T21:16:44;101300.50;;;35.45;15.81
69316;BME280;56445;43.552;5.034;2022-09-17T21:19:19;101281.63;;;35.26;15.93
69316;BME280;56445;43.552;5.034;2022-09-17T21:21:51;101306.59;;;35.31;15.74
69316;BME280;56445;43.552;5.034;2022-09-17T21:24:20;101307.31;;;35.28;15.75
69316;BME280;56445;43.552;5.034;2022-09-17T21:26:48;101308.66;;;35.34;16.10
69316;BME280;56445;43.552;5.034;2022-09-17T21:29:17;101303.63;;;35.24;16.01
69316;BME280;56445;43.552;5.034;2022-09-17T21:31:45;101311.16;;;35.20;15.71
69316;BME280;56445;43.552;5.034;2022-09-17T21:34:13;101320.91;;;35.26;15.87
69316;BME280;56445;43.552;5.034;2022-09-17T21:36:41;101316.09;;;35.27;16.05
69316;BME280;56445;43.552;5.034;2022-09-17T21:39:12;101318.31;;;35.18;16.07
69316;BME280;56445;43.552;5.034;2022-09-17T21:41:44;101327.72;;;35.25;15.77
69316;BME280;56445;43.552;5.034;2022-09-17T21:44:13;101320.19;;;35.13;15.95
69316;BME280;56445;43.552;5.034;2022-09-17T21:46:42;101331.03;;;35.15;15.76
69316;BME280;56445;43.552;5.034;2022-09-17T21:49:09;101322.91;;;35.10;15.83
69316;BME280;56445;43.552;5.034;2022-09-17T21:51:41;101353.44;;;35.15;15.85
69316;BME280;56445;43.552;5.034;2022-09-17T21:54:11;101358.91;;;35.08;15.60
69316;BME280;56445;43.552;5.034;2022-09-17T21:56:38;101349.94;;;35.02;15.70
69316;BME280;56445;43.552;5.034;2022-09-17T21:59:07;101356.38;;;35.03;15.75
69316;BME280;56445;43.552;5.034;2022-09-17T22:01:38;101368.47;;;35.07;15.73
69316;BME280;56445;43.552;5.034;2022-09-17T22:04:11;101370.03;;;35.04;16.09
69316;BME280;56445;43.552;5.034;2022-09-17T22:06:39;101362.25;;;34.98;15.95
69316;BME280;56445;43.552;5.034;2022-09-17T22:09:19;101379.09;;;34.98;16.10
69316;BME280;56445;43.552;5.034;2022-09-17T22:11:48;101381.16;;;35.01;15.89
69316;BME280;56445;43.552;5.034;2022-09-17T22:14:18;101361.81;;;34.95;15.56
